sensor_id;sensor_type;location;lat;lon;timestamp;pressure;altitude;pressure_sealevel;temperature;humidity
48848;BME280;36611;51.638;5.784;2023-02-21T00:01:38;101970.38;;;13.10;61.29
48848;BME280;36611;51.638;5.784;2023-02-21T00:04:24;101975.97;;;13.07;61.08
48848;BME280;36611;51.638;5.784;2023-02-21T00:07:09;101971.44;;;13.08;61.28
48848;BME280;36611;51.638;5.784;2023-02-21T00:09:54;101966.91;;;13.08;61.50
48848;BME280;36611;51.638;5.784;2023-02-21T00:12:39;101967.00;;;13.07;61.20
48848;BME280;36611;51.638;5.784;2023-02-21T00:15:24;101968.94;;;13.04;61.34
48848;BME280;36611;51.638;5.784;2023-02-21T00:18:09;101961.81;;;13.03;61.41
48848;BME280;36611;51.638;5.784;2023-02-21T00:20:54;101972.50;;;13.05;61.33
48848;BME280;36611;51.638;5.784;2023-02-21T00:23:40;101962.59;;;13.05;61.26
48848;BME280;36611;51.638;5.784;2023-02-21T00:26:25;101966.25;;;13.04;61.48
48848;BME280;36611;51.638;5.784;2023-02-21T00:29:10;101969.81;;;13.05;61.20
48848;BME280;36611;51.638;5.784;2023-02-21T00:31:55;101971.75;;;13.03;61.45
48848;BME280;36611;51.638;5.784;2023-02-21T00:34:41;101967.31;;;13.02;61.20
48848;BME280;36611;51.638;5.784;2023-02-21T00:37:27;101970.00;;;13.02;61.36
48848;BME280;36611;51.638;5.784;2023-02-21T00:40:14;101967.59;;;12.97;61.19
48848;BME280;36611;51.638;5.784;2023-02-21T00:43:00;101976.75;;;12.95;61.45
48848;BME280;36611;51.638;5.784;2023-02-21T00:45:45;101969.72;;;12.92;61.38
48848;BME280;36611;51.638;5.784;2023-02-21T00:48:30;101972.50;;;12.91;61.31
48848;BME280;36611;51.638;5.784;2023-02-21T00:51:16;101967.22;;;12.89;61.38
48848;BME280;36611;51.638;5.784;2023-02-21T00:54:02;101967.22;;;12.89;61.33
48848;BME280;36611;51.638;5.784;2023-02-21T00:56:47;101969.06;;;12.89;61.77
48848;BME280;36611;51.638;5.784;2023-02-21T00:59:32;101970.78;;;12.90;61.40
48848;BME280;36611;51.638;5.784;2023-02-21T01:02:17;101960.88;;;12.90;61.80
48848;BME280;36611;51.638;5.784;2023-02-21T01:05:03;101954.59;;;12.90;61.49
48848;BME280;36611;51.638;5.784;2023-02-21T01:07:49;101959.22;;;12.88;61.69
48848;BME280;36611;51.638;5.784;2023-02-21T01:10:34;101956.53;;;12.88;61.90
48848;BME280;36611;51.638;5.784;2023-02-21T01:13:20;101949.31;;;12.88;61.53
48848;BME280;36611;51.638;5.784;2023-02-21T01:16:06;101946.63;;;12.88;61.71
48848;BME280;36611;51.638;5.784;2023-02-21T01:18:56;101944.78;;;12.89;61.81
48848;BME280;36611;51.638;5.784;2023-02-21T01:21:41;101952.97;;;12.87;61.56
48848;BME280;36611;51.638;5.784;2023-02-21T01:24:26;101948.53;;;12.86;61.83
48848;BME280;36611;51.638;5.784;2023-02-21T01:27:11;101947.56;;;12.87;62.00
48848;BME280;36611;51.638;5.784;2023-02-21T01:29:57;101944.13;;;12.85;61.63
48848;BME280;36611;51.638;5.784;2023-02-21T01:32:42;101943.25;;;12.85;61.84
48848;BME280;36611;51.638;5.784;2023-02-21T01:35:27;101941.59;;;12.82;62.14
48848;BME280;36611;51.638;5.784;2023-02-21T01:38:12;101945.16;;;12.83;61.72
48848;BME280;36611;51.638;5.784;2023-02-21T01:40:57;101942.56;;;12.81;62.08
48848;BME280;36611;51.638;5.784;2023-02-21T01:43:57;101941.81;;;12.79;62.40
48848;BME280;36611;51.638;5.784;2023-02-21T01:46:43;101937.19;;;12.81;62.24
48848;BME280;36611;51.638;5.784;2023-02-21T01:49:28;101935.44;;;12.80;61.97
48848;BME280;36611;51.638;5.784;2023-02-21T01:52:14;101939.97;;;12.80;62.24
48848;BME280;36611;51.638;5.784;2023-02-21T01:55:00;101936.31;;;12.81;61.83
48848;BME280;36611;51.638;5.784;2023-02-21T01:57:46;101927.16;;;12.83;61.95
48848;BME280;36611;51.638;5.784;2023-02-21T02:00:32;101932.84;;;12.79;62.01
48848;BME280;36611;51.638;5.784;2023-02-21T02:03:19;101924.97;;;12.76;62.21
48848;BME280;36611;51.638;5.784;2023-02-21T02:06:08;101915.22;;;12.73;62.09
48848;BME280;36611;51.638;5.784;2023-02-21T02:08:54;101917.25;;;12.69;62.29
48848;BME280;36611;51.638;5.784;2023-02-21T02:15:03;101917.25;;;12.69;62.03
48848;BME280;36611;51.638;5.784;2023-02-21T02:28:30;101909.38;;;12.66;62.19
48848;BME280;36611;51.638;5.784;2023-02-21T02:31:37;101909.28;;;12.68;62.38
48848;BME280;36611;51.638;5.784;2023-02-21T02:37:13;101907.44;;;12.68;62.31
48848;BME280;36611;51.638;5.784;2023-02-21T02:39:55;101909.47;;;12.65;62.36
48848;BME280;36611;51.638;5.784;2023-02-21T02:42:30;101917.66;;;12.63;62.32
48848;BME280;36611;51.638;5.784;2023-02-21T02:47:43;101912.16;;;12.65;62.69
48848;BME280;36611;51.638;5.784;2023-02-21T02:50:11;101913.97;;;12.64;62.57
48848;BME280;36611;51.638;5.784;2023-02-21T02:52:49;101905.03;;;12.64;62.49
48848;BME280;36611;51.638;5.784;2023-02-21T02:55:40;101905.09;;;12.62;62.66
48848;BME280;36611;51.638;5.784;2023-02-21T02:58:10;101909.47;;;12.65;62.76
48848;BME280;36611;51.638;5.784;2023-02-21T03:00:44;101907.72;;;12.64;62.82
48848;BME280;36611;51.638;5.784;2023-02-21T03:06:15;101899.53;;;12.65;62.79
48848;BME280;36611;51.638;5.784;2023-02-21T03:09:08;101899.44;;;12.67;62.45
48848;BME280;36611;51.638;5.784;2023-02-21T03:11:46;101897.63;;;12.67;62.68
48848;BME280;36611;51.638;5.784;2023-02-21T03:14:18;101900.31;;;12.67;62.74
48848;BME280;36611;51.638;5.784;2023-02-21T03:16:51;101895.69;;;12.69;62.51
48848;BME280;36611;51.638;5.784;2023-02-21T03:19:24;101901.19;;;12.68;62.83
48848;BME280;36611;51.638;5.784;2023-02-21T03:21:59;101903.88;;;12.68;62.90
48848;BME280;36611;51.638;5.784;2023-02-21T03:24:27;101906.47;;;12.69;62.78
48848;BME280;36611;51.638;5.784;2023-02-21T03:27:06;101914.56;;;12.69;62.74
48848;BME280;36611;51.638;5.784;2023-02-21T03:29:46;101903.88;;;12.68;62.88
48848;BME280;36611;51.638;5.784;2023-02-21T03:32:21;101909.28;;;12.68;62.86
48848;BME280;36611;51.638;5.784;2023-02-21T03:34:50;101903.88;;;12.68;62.93
48848;BME280;36611;51.638;5.784;2023-02-21T03:39:57;101899.34;;;12.68;62.64
48848;BME280;36611;51.638;5.784;2023-02-21T03:42:24;101899.34;;;12.68;63.01
48848;BME280;36611;51.638;5.784;2023-02-21T03:44:51;101895.78;;;12.68;62.96
48848;BME280;36611;51.638;5.784;2023-02-21T03:47:19;101901.28;;;12.66;62.80
48848;BME280;36611;51.638;5.784;2023-02-21T03:49:45;101903.09;;;12.66;62.88
48848;BME280;36611;51.638;5.784;2023-02-21T03:52:12;101903.88;;;12.68;62.73
48848;BME280;36611;51.638;5.784;2023-02-21T03:54:40;101895.03;;;12.66;63.12
48848;BME280;36611;51.638;5.784;2023-02-21T03:57:09;101904.75;;;12.68;63.21
48848;BME280;36611;51.638;5.784;2023-02-21T03:59:44;101910.13;;;12.68;63.07
48848;BME280;36611;51.638;5.784;2023-02-21T04:02:12;101905.81;;;12.66;62.90
48848;BME280;36611;51.638;5.784;2023-02-21T04:04:39;101915.72;;;12.65;62.95
48848;BME280;36611;51.638;5.784;2023-02-21T04:07:08;101905.81;;;12.66;63.20
48848;BME280;36611;51.638;5.784;2023-02-21T04:09:36;101907.44;;;12.68;62.82
48848;BME280;36611;51.638;5.784;2023-02-21T04:12:06;101904.75;;;12.68;63.07
48848;BME280;36611;51.638;5.784;2023-02-21T04:14:34;101899.34;;;12.68;63.16
48848;BME280;36611;51.638;5.784;2023-02-21T04:17:02;101890.31;;;12.69;63.12
48848;BME280;36611;51.638;5.784;2023-02-21T04:19:29;101888.47;;;12.70;63.16
48848;BME280;36611;51.638;5.784;2023-02-21T04:21:56;101886.75;;;12.69;63.21
48848;BME280;36611;51.638;5.784;2023-02-21T04:24:22;101885.88;;;12.68;62.82
48848;BME280;36611;51.638;5.784;2023-02-21T04:26:50;101884.06;;;12.69;63.33
48848;BME280;36611;51.638;5.784;2023-02-21T04:29:17;101884.06;;;12.69;62.99
48848;BME280;36611;51.638;5.784;2023-02-21T04:31:45;101888.56;;;12.68;63.18
48848;BME280;36611;51.638;5.784;2023-02-21T04:34:14;101888.56;;;12.68;63.17
48848;BME280;36611;51.638;5.784;2023-02-21T04:36:43;101879.53;;;12.69;63.13
48848;BME280;36611;51.638;5.784;2023-02-21T04:39:09;101881.34;;;12.69;63.24
48848;BME280;36611;51.638;5.784;2023-02-21T04:41:37;101890.41;;;12.68;63.00
48848;BME280;36611;51.638;5.784;2023-02-21T04:44:04;101889.72;;;12.64;63.07
48848;BME280;36611;51.638;5.784;2023-02-21T04:46:32;101880.84;;;12.62;63.15
48848;BME280;36611;51.638;5.784;2023-02-21T04:49:00;101875.56;;;12.61;62.99
48848;BME280;36611;51.638;5.784;2023-02-21T04:51:26;101873.72;;;12.61;62.99
48848;BME280;36611;51.638;5.784;2023-02-21T04:53:53;101871.88;;;12.62;63.16
48848;BME280;36611;51.638;5.784;2023-02-21T04:56:23;101875.47;;;12.62;63.42
48848;BME280;36611;51.638;5.784;2023-02-21T04:58:51;101873.47;;;12.66;63.42
48848;BME280;36611;51.638;5.784;2023-02-21T05:01:19;101875.19;;;12.67;63.00
48848;BME280;36611;51.638;5.784;2023-02-21T05:03:46;101869.91;;;12.65;63.12
48848;BME280;36611;51.638;5.784;2023-02-21T05:06:20;101872.69;;;12.64;63.04
48848;BME280;36611;51.638;5.784;2023-02-21T05:08:48;101879.91;;;12.63;63.11
48848;BME280;36611;51.638;5.784;2023-02-21T05:11:16;101871.81;;;12.63;63.28
48848;BME280;36611;51.638;5.784;2023-02-21T05:13:43;101867.38;;;12.62;63.16
48848;BME280;36611;51.638;5.784;2023-02-21T05:16:10;101871.81;;;12.63;63.11
48848;BME280;36611;51.638;5.784;2023-02-21T05:18:39;101874.53;;;12.63;63.44
48848;BME280;36611;51.638;5.784;2023-02-21T05:21:06;101883.47;;;12.64;63.34
48848;BME280;36611;51.638;5.784;2023-02-21T05:23:33;101878.16;;;12.62;63.53
48848;BME280;36611;51.638;5.784;2023-02-21T05:26:10;101874.59;;;12.62;63.59
48848;BME280;36611;51.638;5.784;2023-02-21T05:28:38;101875.47;;;12.62;63.19
48848;BME280;36611;51.638;5.784;2023-02-21T05:31:05;101880.84;;;12.62;63.67
48848;BME280;36611;51.638;5.784;2023-02-21T05:33:32;101873.72;;;12.61;63.39
48848;BME280;36611;51.638;5.784;2023-02-21T05:35:59;101876.41;;;12.61;63.42
48848;BME280;36611;51.638;5.784;2023-02-21T05:38:26;101866.50;;;12.62;63.20
48848;BME280;36611;51.638;5.784;2023-02-21T05:40:53;101871.81;;;12.63;63.66
48848;BME280;36611;51.638;5.784;2023-02-21T05:43:19;101871.72;;;12.65;63.60
48848;BME280;36611;51.638;5.784;2023-02-21T05:45:46;101878.00;;;12.65;63.65
48848;BME280;36611;51.638;5.784;2023-02-21T05:48:13;101878.00;;;12.65;63.55
48848;BME280;36611;51.638;5.784;2023-02-21T05:50:40;101873.56;;;12.64;63.68
48848;BME280;36611;51.638;5.784;2023-02-21T05:53:07;101868.22;;;12.63;63.41
48848;BME280;36611;51.638;5.784;2023-02-21T05:55:36;101879.91;;;12.63;63.66
48848;BME280;36611;51.638;5.784;2023-02-21T05:58:02;101882.50;;;12.65;63.50
48848;BME280;36611;51.638;5.784;2023-02-21T06:00:30;101885.13;;;12.66;63.65
48848;BME280;36611;51.638;5.784;2023-02-21T06:02:56;101889.63;;;12.66;63.53
48848;BME280;36611;51.638;5.784;2023-02-21T06:05:23;101886.06;;;12.65;63.69
48848;BME280;36611;51.638;5.784;2023-02-21T06:07:50;101879.81;;;12.65;63.43
48848;BME280;36611;51.638;5.784;2023-02-21T06:10:18;101882.50;;;12.65;63.54
48848;BME280;36611;51.638;5.784;2023-02-21T06:12:45;101886.06;;;12.65;63.68
48848;BME280;36611;51.638;5.784;2023-02-21T06:15:12;101883.47;;;12.64;63.41
48848;BME280;36611;51.638;5.784;2023-02-21T06:17:40;101886.22;;;12.62;63.43
48848;BME280;36611;51.638;5.784;2023-02-21T06:20:12;101888.16;;;12.60;63.62
48848;BME280;36611;51.638;5.784;2023-02-21T06:22:39;101890.94;;;12.59;63.61
48848;BME280;36611;51.638;5.784;2023-02-21T06:25:07;101888.34;;;12.57;63.51
48848;BME280;36611;51.638;5.784;2023-02-21T06:27:34;101887.47;;;12.57;63.91
48848;BME280;36611;51.638;5.784;2023-02-21T06:30:01;101892.00;;;12.56;63.86
48848;BME280;36611;51.638;5.784;2023-02-21T06:32:28;101888.25;;;12.59;63.61
48848;BME280;36611;51.638;5.784;2023-02-21T06:34:55;101891.72;;;12.61;63.66
48848;BME280;36611;51.638;5.784;2023-02-21T06:37:22;101892.69;;;12.60;63.83
48848;BME280;36611;51.638;5.784;2023-02-21T06:39:49;101895.38;;;12.60;63.83
48848;BME280;36611;51.638;5.784;2023-02-21T06:42:16;101894.59;;;12.58;63.55
48848;BME280;36611;51.638;5.784;2023-02-21T06:44:47;101895.38;;;12.60;63.70
48848;BME280;36611;51.638;5.784;2023-02-21T06:47:14;101889.13;;;12.59;63.76
48848;BME280;36611;51.638;5.784;2023-02-21T06:49:42;101895.56;;;12.57;63.36
48848;BME280;36611;51.638;5.784;2023-02-21T06:52:09;101899.22;;;12.56;63.75
48848;BME280;36611;51.638;5.784;2023-02-21T06:54:36;101888.53;;;12.54;63.59
48848;BME280;36611;51.638;5.784;2023-02-21T06:57:03;101895.75;;;12.54;63.56
48848;BME280;36611;51.638;5.784;2023-02-21T06:59:31;101898.38;;;12.55;63.49
48848;BME280;36611;51.638;5.784;2023-02-21T07:01:58;101902.88;;;12.55;63.81
48848;BME280;36611;51.638;5.784;2023-02-21T07:04:25;101907.41;;;12.54;63.89
48848;BME280;36611;51.638;5.784;2023-02-21T07:06:52;101902.88;;;12.55;63.55
48848;BME280;36611;51.638;5.784;2023-02-21T07:09:18;101904.03;;;12.51;63.62
48848;BME280;36611;51.638;5.784;2023-02-21T07:11:45;101897.00;;;12.48;63.72
48848;BME280;36611;51.638;5.784;2023-02-21T07:14:13;101897.09;;;12.47;63.65
48848;BME280;36611;51.638;5.784;2023-02-21T07:16:39;101902.59;;;12.45;63.53
48848;BME280;36611;51.638;5.784;2023-02-21T07:19:06;101906.25;;;12.44;63.68
48848;BME280;36611;51.638;5.784;2023-02-21T07:21:33;101899.13;;;12.43;63.88
48848;BME280;36611;51.638;5.784;2023-02-21T07:24:00;101908.94;;;12.44;63.53
48848;BME280;36611;51.638;5.784;2023-02-21T07:26:26;101909.03;;;12.43;63.83
48848;BME280;36611;51.638;5.784;2023-02-21T07:28:53;101895.66;;;12.41;63.93
48848;BME280;36611;51.638;5.784;2023-02-21T07:31:19;101894.78;;;12.40;63.75
48848;BME280;36611;51.638;5.784;2023-02-21T07:33:47;101897.50;;;12.40;63.58
48848;BME280;36611;51.638;5.784;2023-02-21T07:36:13;101901.25;;;12.38;63.81
48848;BME280;36611;51.638;5.784;2023-02-21T07:38:40;101905.75;;;12.37;63.78
48848;BME280;36611;51.638;5.784;2023-02-21T07:41:06;101912.88;;;12.38;63.52
48848;BME280;36611;51.638;5.784;2023-02-21T07:43:33;101914.63;;;12.39;63.76
48848;BME280;36611;51.638;5.784;2023-02-21T07:46:00;101907.31;;;12.41;63.53
48848;BME280;36611;51.638;5.784;2023-02-21T07:48:27;101903.47;;;12.46;63.93
48848;BME280;36611;51.638;5.784;2023-02-21T07:50:53;101904.22;;;12.48;63.91
48848;BME280;36611;51.638;5.784;2023-02-21T07:53:20;101910.47;;;12.48;63.98
48848;BME280;36611;51.638;5.784;2023-02-21T07:55:47;101913.19;;;12.48;63.98
48848;BME280;36611;51.638;5.784;2023-02-21T07:58:13;101914.03;;;12.49;63.95
48848;BME280;36611;51.638;5.784;2023-02-21T08:00:40;101911.34;;;12.49;64.06
48848;BME280;36611;51.638;5.784;2023-02-21T08:03:10;101904.31;;;12.46;63.62
48848;BME280;36611;51.638;5.784;2023-02-21T08:05:37;101893.56;;;12.46;63.94
48848;BME280;36611;51.638;5.784;2023-02-21T08:08:08;101899.13;;;12.43;64.00
48848;BME280;36611;51.638;5.784;2023-02-21T08:10:35;101904.41;;;12.45;63.97
48848;BME280;36611;51.638;5.784;2023-02-21T08:13:02;101915.09;;;12.46;64.15
48848;BME280;36611;51.638;5.784;2023-02-21T08:15:29;101917.78;;;12.46;63.81
48848;BME280;36611;51.638;5.784;2023-02-21T08:17:56;101918.66;;;12.47;63.92
48848;BME280;36611;51.638;5.784;2023-02-21T08:20:26;101917.78;;;12.46;64.11
48848;BME280;36611;51.638;5.784;2023-02-21T08:22:52;101915.09;;;12.46;63.82
48848;BME280;36611;51.638;5.784;2023-02-21T08:25:19;101913.28;;;12.47;63.82
48848;BME280;36611;51.638;5.784;2023-02-21T08:27:47;101912.31;;;12.48;63.66
48848;BME280;36611;51.638;5.784;2023-02-21T08:30:18;101912.31;;;12.48;64.04
48848;BME280;36611;51.638;5.784;2023-02-21T08:32:45;101923.09;;;12.48;64.09
48848;BME280;36611;51.638;5.784;2023-02-21T08:35:18;101913.28;;;12.47;63.86
48848;BME280;36611;51.638;5.784;2023-02-21T08:37:50;101904.22;;;12.48;64.13
48848;BME280;36611;51.638;5.784;2023-02-21T08:40:20;101904.22;;;12.48;64.10
48848;BME280;36611;51.638;5.784;2023-02-21T08:42:49;101903.16;;;12.50;63.97
48848;BME280;36611;51.638;5.784;2023-02-21T08:45:18;101908.66;;;12.49;64.15
48848;BME280;36611;51.638;5.784;2023-02-21T08:47:45;101904.13;;;12.49;63.89
48848;BME280;36611;51.638;5.784;2023-02-21T08:50:11;101903.28;;;12.49;63.78
48848;BME280;36611;51.638;5.784;2023-02-21T08:52:38;101907.78;;;12.48;64.24
48848;BME280;36611;51.638;5.784;2023-02-21T08:55:06;101905.09;;;12.48;63.99
48848;BME280;36611;51.638;5.784;2023-02-21T08:57:33;101900.38;;;12.52;64.41
48848;BME280;36611;51.638;5.784;2023-02-21T09:00:00;101895.75;;;12.54;64.31
48848;BME280;36611;51.638;5.784;2023-02-21T09:02:27;101891.03;;;12.57;64.24
48848;BME280;36611;51.638;5.784;2023-02-21T09:04:54;101896.44;;;12.57;64.08
48848;BME280;36611;51.638;5.784;2023-02-21T09:07:21;101899.91;;;12.59;63.97
48848;BME280;36611;51.638;5.784;2023-02-21T09:09:48;101893.44;;;12.62;64.33
48848;BME280;36611;51.638;5.784;2023-02-21T09:12:15;101889.78;;;12.63;64.02
48848;BME280;36611;51.638;5.784;2023-02-21T09:14:42;101892.44;;;12.64;64.20
48848;BME280;36611;51.638;5.784;2023-02-21T09:17:12;101890.69;;;12.63;64.15
48848;BME280;36611;51.638;5.784;2023-02-21T09:19:39;101899.72;;;12.62;64.01
48848;BME280;36611;51.638;5.784;2023-02-21T09:22:08;101894.31;;;12.62;64.07
48848;BME280;36611;51.638;5.784;2023-02-21T09:24:35;101885.97;;;12.67;64.20
48848;BME280;36611;51.638;5.784;2023-02-21T09:27:03;101885.88;;;12.68;63.88
48848;BME280;36611;51.638;5.784;2023-02-21T09:29:31;101890.22;;;12.71;64.24
48848;BME280;36611;51.638;5.784;2023-02-21T09:32:11;101884.72;;;12.72;64.03
48848;BME280;36611;51.638;5.784;2023-02-21T09:34:38;101889.91;;;12.76;63.85
48848;BME280;36611;51.638;5.784;2023-02-21T09:37:05;101884.44;;;12.77;64.00
48848;BME280;36611;51.638;5.784;2023-02-21T09:39:32;101885.19;;;12.79;63.96
48848;BME280;36611;51.638;5.784;2023-02-21T09:41:59;101887.03;;;12.79;64.08
48848;BME280;36611;51.638;5.784;2023-02-21T09:44:26;101880.56;;;12.81;64.00
48848;BME280;36611;51.638;5.784;2023-02-21T09:47:04;101873.34;;;12.82;64.07
48848;BME280;36611;51.638;5.784;2023-02-21T09:49:38;101873.34;;;12.82;64.32
48848;BME280;36611;51.638;5.784;2023-02-21T09:52:17;101877.69;;;12.84;64.11
48848;BME280;36611;51.638;5.784;2023-02-21T09:54:52;101878.44;;;12.86;64.07
48848;BME280;36611;51.638;5.784;2023-02-21T09:57:22;101879.22;;;12.88;64.08
48848;BME280;36611;51.638;5.784;2023-02-21T09:59:49;101872.00;;;12.89;64.07
48848;BME280;36611;51.638;5.784;2023-02-21T10:02:30;101874.59;;;12.90;64.08
48848;BME280;36611;51.638;5.784;2023-02-21T10:05:23;101869.09;;;12.92;64.06
48848;BME280;36611;51.638;5.784;2023-02-21T10:08:13;101872.34;;;12.97;64.21
48848;BME280;36611;51.638;5.784;2023-02-21T10:10:55;101870.22;;;13.02;63.86
48848;BME280;36611;51.638;5.784;2023-02-21T10:13:40;101879.00;;;13.05;63.89
48848;BME280;36611;51.638;5.784;2023-02-21T10:18:40;101875.88;;;13.12;64.17
48848;BME280;36611;51.638;5.784;2023-02-21T10:21:15;101875.78;;;13.13;64.23
48848;BME280;36611;51.638;5.784;2023-02-21T10:23:45;101887.34;;;13.15;64.18
48848;BME280;36611;51.638;5.784;2023-02-21T10:26:28;101877.34;;;13.17;63.83
48848;BME280;36611;51.638;5.784;2023-02-21T10:28:56;101883.50;;;13.19;63.94
48848;BME280;36611;51.638;5.784;2023-02-21T10:31:34;101881.56;;;13.21;63.96
48848;BME280;36611;51.638;5.784;2023-02-21T10:34:04;101875.97;;;13.24;63.65
48848;BME280;36611;51.638;5.784;2023-02-21T10:36:33;101874.91;;;13.27;63.79
48848;BME280;36611;51.638;5.784;2023-02-21T10:39:14;101878.38;;;13.29;63.64
48848;BME280;36611;51.638;5.784;2023-02-21T10:41:42;101880.97;;;13.30;63.81
48848;BME280;36611;51.638;5.784;2023-02-21T10:44:09;101876.44;;;13.31;63.80
48848;BME280;36611;51.638;5.784;2023-02-21T10:46:44;101879.91;;;13.33;63.64
48848;BME280;36611;51.638;5.784;2023-02-21T10:49:33;101871.72;;;13.34;63.67
48848;BME280;36611;51.638;5.784;2023-02-21T10:52:17;101879.81;;;13.34;63.50
48848;BME280;36611;51.638;5.784;2023-02-21T10:58:03;101878.72;;;13.37;63.56
48848;BME280;36611;51.638;5.784;2023-02-21T11:00:36;101877.97;;;13.35;63.58
48848;BME280;36611;51.638;5.784;2023-02-21T11:05:52;101871.59;;;13.36;63.50
48848;BME280;36611;51.638;5.784;2023-02-21T11:08:41;101871.50;;;13.38;63.63
48848;BME280;36611;51.638;5.784;2023-02-21T11:11:09;101864.19;;;13.40;63.39
48848;BME280;36611;51.638;5.784;2023-02-21T11:13:36;101872.19;;;13.41;63.29
48848;BME280;36611;51.638;5.784;2023-02-21T11:16:21;101861.31;;;13.43;63.66
48848;BME280;36611;51.638;5.784;2023-02-21T11:19:04;101868.13;;;13.48;63.75
48848;BME280;36611;51.638;5.784;2023-02-21T11:21:31;101858.84;;;13.52;63.69
48848;BME280;36611;51.638;5.784;2023-02-21T11:24:01;101863.06;;;13.56;63.74
48848;BME280;36611;51.638;5.784;2023-02-21T11:26:36;101862.88;;;13.59;63.58
48848;BME280;36611;51.638;5.784;2023-02-21T11:29:23;101851.84;;;13.62;63.61
48848;BME280;36611;51.638;5.784;2023-02-21T11:31:52;101853.38;;;13.66;63.29
48848;BME280;36611;51.638;5.784;2023-02-21T11:34:19;101850.56;;;13.68;63.47
48848;BME280;36611;51.638;5.784;2023-02-21T11:36:46;101848.63;;;13.70;63.38
48848;BME280;36611;51.638;5.784;2023-02-21T11:39:31;101849.41;;;13.72;63.23
48848;BME280;36611;51.638;5.784;2023-02-21T11:42:00;101843.03;;;13.73;63.26
48848;BME280;36611;51.638;5.784;2023-02-21T11:44:32;101851.13;;;13.73;63.24
48848;BME280;36611;51.638;5.784;2023-02-21T11:47:18;101844.00;;;13.72;63.24
48848;BME280;36611;51.638;5.784;2023-02-21T11:50:06;101846.50;;;13.75;63.35
48848;BME280;36611;51.638;5.784;2023-02-21T11:52:39;101845.41;;;13.78;62.96
48848;BME280;36611;51.638;5.784;2023-02-21T11:55:14;101841.63;;;13.80;63.22
48848;BME280;36611;51.638;5.784;2023-02-21T11:58:08;101847.03;;;13.80;63.25
48848;BME280;36611;51.638;5.784;2023-02-21T12:00:56;101837.09;;;13.81;62.76
48848;BME280;36611;51.638;5.784;2023-02-21T12:09:14;101829.44;;;13.75;62.52
48848;BME280;36611;51.638;5.784;2023-02-21T12:17:11;101811.19;;;13.78;62.91
48848;BME280;36611;51.638;5.784;2023-02-21T12:25:54;101817.03;;;13.85;62.72
48848;BME280;36611;51.638;5.784;2023-02-21T12:28:47;101805.34;;;13.84;62.75
48848;BME280;36611;51.638;5.784;2023-02-21T12:31:37;101808.91;;;13.85;62.60
48848;BME280;36611;51.638;5.784;2023-02-21T12:37:19;101811.50;;;13.86;62.47
48848;BME280;36611;51.638;5.784;2023-02-21T12:48:55;101799.31;;;13.93;62.42
48848;BME280;36611;51.638;5.784;2023-02-21T12:51:05;101793.59;;;13.98;62.14
48848;BME280;36611;51.638;5.784;2023-02-21T12:56:13;101792.28;;;14.04;62.12
48848;BME280;36611;51.638;5.784;2023-02-21T12:59:17;101790.34;;;14.06;62.08
48848;BME280;36611;51.638;5.784;2023-02-21T13:02:03;101784.63;;;14.10;62.22
48848;BME280;36611;51.638;5.784;2023-02-21T13:04:44;101776.41;;;14.12;62.11
48848;BME280;36611;51.638;5.784;2023-02-21T13:07:52;101775.53;;;14.11;62.06
48848;BME280;36611;51.638;5.784;2023-02-21T13:11:06;101779.88;;;14.14;61.77
48848;BME280;36611;51.638;5.784;2023-02-21T13:13:13;101781.63;;;14.15;62.01
48848;BME280;36611;51.638;5.784;2023-02-21T13:15:42;101780.66;;;14.16;61.73
48848;BME280;36611;51.638;5.784;2023-02-21T13:21:24;101768.28;;;14.12;61.80
48848;BME280;36611;51.638;5.784;2023-02-21T13:31:58;101762.81;;;14.13;61.45
48848;BME280;36611;51.638;5.784;2023-02-21T13:34:29;101764.44;;;14.16;61.27
48848;BME280;36611;51.638;5.784;2023-02-21T13:37:02;101753.53;;;14.17;61.22
48848;BME280;36611;51.638;5.784;2023-02-21T13:39:32;101751.56;;;14.19;61.71
48848;BME280;36611;51.638;5.784;2023-02-21T13:42:07;101748.53;;;14.24;61.60
48848;BME280;36611;51.638;5.784;2023-02-21T13:44:41;101742.16;;;14.25;61.45
48848;BME280;36611;51.638;5.784;2023-02-21T13:48:08;101742.91;;;14.27;61.35
48848;BME280;36611;51.638;5.784;2023-02-21T13:55:35;101735.03;;;14.24;61.21
48848;BME280;36611;51.638;5.784;2023-02-21T14:08:35;101725.19;;;14.23;61.24
48848;BME280;36611;51.638;5.784;2023-02-21T14:13:44;101728.00;;;14.21;60.94
48848;BME280;36611;51.638;5.784;2023-02-21T14:21:09;101738.41;;;14.15;60.96
48848;BME280;36611;51.638;5.784;2023-02-21T14:23:46;101731.38;;;14.12;60.78
48848;BME280;36611;51.638;5.784;2023-02-21T14:26:35;101731.44;;;14.11;60.46
48848;BME280;36611;51.638;5.784;2023-02-21T14:39:47;101716.44;;;14.07;60.36
48848;BME280;36611;51.638;5.784;2023-02-21T14:50:59;101718.19;;;13.95;60.46
48848;BME280;36611;51.638;5.784;2023-02-21T14:54:16;101716.56;;;13.92;60.15
48848;BME280;36611;51.638;5.784;2023-02-21T14:56:45;101715.81;;;13.90;60.39
48848;BME280;36611;51.638;5.784;2023-02-21T14:59:33;101726.72;;;13.89;60.48
48848;BME280;36611;51.638;5.784;2023-02-21T15:02:06;101720.47;;;13.88;60.45
48848;BME280;36611;51.638;5.784;2023-02-21T15:04:45;101720.56;;;13.87;60.30
48848;BME280;36611;51.638;5.784;2023-02-21T15:09:40;101710.63;;;13.87;60.02
48848;BME280;36611;51.638;5.784;2023-02-21T15:12:14;101706.22;;;13.86;60.01
48848;BME280;36611;51.638;5.784;2023-02-21T15:14:51;101700.91;;;13.85;60.37
48848;BME280;36611;51.638;5.784;2023-02-21T15:17:21;101700.06;;;13.84;60.09
48848;BME280;36611;51.638;5.784;2023-02-21T15:20:15;101698.44;;;13.82;60.36
48848;BME280;36611;51.638;5.784;2023-02-21T15:22:43;101698.31;;;13.83;60.13
48848;BME280;36611;51.638;5.784;2023-02-21T15:27:57;101691.31;;;13.81;60.34
48848;BME280;36611;51.638;5.784;2023-02-21T15:30:31;101694.75;;;13.83;60.04